Time;durP1;ratioP1;P1;durP2;ratioP2;P2;SDS_P1;SDS_P2;PMS_P1;PMS_P2;Temp;Humidity;BMP_temperature;BMP_pressure;BME280_temperature;BME280_humidity;BME280_pressure;Samples;Min_cycle;Max_cycle;Signal;HPM_P1;HPM_P2
2022/05/11 00:00:53;;;;;;;20.48;14.60;;;10.90;99.90;;;;;;5075579;28;20054;-57
2022/05/11 00:03:20;;;;;;;23.52;15.15;;;10.90;99.90;;;;;;5075920;28;20039;-57
2022/05/11 00:05:47;;;;;;;20.00;14.05;;;10.90;99.90;;;;;;5075639;28;20053;-57
2022/05/11 00:08:13;;;;;;;22.98;15.07;;;10.90;99.90;;;;;;5075453;28;20330;-57
2022/05/11 00:10:40;;;;;;;23.13;14.65;;;10.90;99.90;;;;;;5075744;28;20024;-57
2022/05/11 00:13:06;;;;;;;19.42;14.65;;;10.90;99.90;;;;;;5075235;28;20056;-57
2022/05/11 00:15:33;;;;;;;20.90;16.02;;;10.90;99.90;;;;;;5075278;28;20419;-57
2022/05/11 00:18:00;;;;;;;26.17;16.20;;;10.90;99.90;;;;;;5075675;28;20032;-57
2022/05/11 00:20:26;;;;;;;22.80;15.60;;;10.80;99.90;;;;;;5075336;28;20046;-57
2022/05/11 00:22:54;;;;;;;25.95;15.15;;;10.80;99.90;;;;;;5075530;28;20035;-57
2022/05/11 00:25:20;;;;;;;24.90;14.95;;;10.80;99.90;;;;;;5075413;28;20040;-57
2022/05/11 00:27:46;;;;;;;22.45;15.57;;;10.70;99.90;;;;;;5075172;28;20025;-57
2022/05/11 00:30:12;;;;;;;22.33;16.15;;;10.70;99.90;;;;;;5075138;28;20036;-57
2022/05/11 00:32:38;;;;;;;24.90;16.90;;;10.70;99.90;;;;;;5075220;28;20074;-57
2022/05/11 00:35:05;;;;;;;27.05;16.45;;;10.60;99.90;;;;;;5075185;28;20040;-57
2022/05/11 00:37:31;;;;;;;25.58;16.95;;;10.60;99.90;;;;;;5075352;28;20029;-57
2022/05/11 00:39:58;;;;;;;24.20;16.75;;;10.60;99.90;;;;;;5075003;28;20044;-57
2022/05/11 00:42:24;;;;;;;29.65;16.77;;;10.50;99.90;;;;;;5075379;28;20033;-57
2022/05/11 00:44:50;;;;;;;27.08;16.88;;;10.50;99.90;;;;;;5075176;28;20090;-57
2022/05/11 00:47:28;;;;;;;27.05;16.60;;;10.50;99.90;;;;;;5074905;28;20089;-57
2022/05/11 00:50:19;;;;;;;26.42;17.20;;;10.50;99.90;;;;;;5075026;28;20060;-57
2022/05/11 00:52:47;;;;;;;25.05;17.10;;;10.50;99.90;;;;;;5060961;28;20036;-57
2022/05/11 00:55:24;;;;;;;23.08;16.65;;;10.50;99.90;;;;;;5074965;28;20043;-57
2022/05/11 00:58:04;;;;;;;24.48;16.27;;;10.50;99.90;;;;;;5074600;28;20021;-57
2022/05/11 01:00:30;;;;;;;26.73;16.23;;;10.50;99.90;;;;;;5074852;28;20440;-57
2022/05/11 01:03:16;;;;;;;24.20;15.35;;;10.50;99.90;;;;;;5074704;28;20052;-57
2022/05/11 01:05:44;;;;;;;27.70;15.75;;;10.50;99.90;;;;;;5074857;28;20115;-57
2022/05/11 01:08:13;;;;;;;23.67;15.48;;;10.40;99.90;;;;;;5073664;28;20458;-57
2022/05/11 01:10:40;;;;;;;25.10;15.00;;;10.40;99.90;;;;;;5074628;28;20090;-57
2022/05/11 01:13:10;;;;;;;20.25;14.07;;;10.40;99.90;;;;;;5074681;28;20264;-57
2022/05/11 01:15:37;;;;;;;23.00;14.60;;;10.40;99.90;;;;;;5074503;28;20070;-57
2022/05/11 01:18:06;;;;;;;19.90;14.20;;;10.30;99.90;;;;;;5074508;28;20148;-57
2022/05/11 01:20:35;;;;;;;20.63;13.95;;;10.20;99.90;;;;;;5074310;28;20041;-57
2022/05/11 01:23:26;;;;;;;20.90;14.65;;;10.20;99.90;;;;;;5074547;28;20096;-57
2022/05/11 01:25:54;;;;;;;19.33;14.00;;;10.10;99.90;;;;;;5074445;28;20028;-57
2022/05/11 01:28:20;;;;;;;18.70;13.90;;;10.10;99.90;;;;;;5074244;28;20474;-57
2022/05/11 01:30:50;;;;;;;20.40;13.27;;;10.10;99.90;;;;;;5074936;28;20038;-57
2022/05/11 01:33:19;;;;;;;22.45;15.23;;;10.10;99.90;;;;;;5074068;28;20037;-57
2022/05/11 01:35:58;;;;;;;28.40;15.45;;;10.10;99.90;;;;;;5074537;28;20035;-57
2022/05/11 01:38:27;;;;;;;22.08;14.10;;;10.20;99.90;;;;;;5074311;28;20074;-57
2022/05/11 01:40:53;;;;;;;19.23;14.27;;;10.10;99.90;;;;;;5074348;28;20074;-57
2022/05/11 01:43:22;;;;;;;23.98;14.52;;;10.10;99.90;;;;;;5074447;28;20127;-57
2022/05/11 01:45:48;;;;;;;20.40;14.82;;;10.10;99.90;;;;;;5074082;28;20028;-57
2022/05/11 01:48:15;;;;;;;23.92;14.73;;;10.00;99.90;;;;;;5074170;28;20484;-57
2022/05/11 01:50:41;;;;;;;26.58;16.02;;;9.90;99.90;;;;;;5074185;28;20067;-57
2022/05/11 01:53:07;;;;;;;23.40;14.75;;;9.90;99.90;;;;;;5074102;28;20024;-57
2022/05/11 01:55:34;;;;;;;23.42;15.02;;;9.90;99.90;;;;;;5074017;28;20024;-57
2022/05/11 01:58:02;;;;;;;21.10;14.88;;;9.90;99.90;;;;;;5074169;28;20024;-57
2022/05/11 02:00:28;;;;;;;24.77;15.48;;;9.90;99.90;;;;;;5074128;28;20039;-57
2022/05/11 02:02:54;;;;;;;21.80;14.25;;;9.90;99.90;;;;;;5073955;28;20074;-57
2022/05/11 02:08:05;;;;;;;25.15;15.60;;;9.80;99.90;;;;;;5073889;28;20032;-57
2022/05/11 02:10:31;;;;;;;24.48;15.73;;;9.90;99.90;;;;;;5073835;28;20538;-57
2022/05/11 02:12:58;;;;;;;19.35;14.27;;;9.80;99.90;;;;;;5074189;28;20036;-57
2022/05/11 02:15:26;;;;;;;32.72;16.45;;;9.80;99.90;;;;;;5073908;28;20033;-57
2022/05/11 02:17:53;;;;;;;26.83;16.73;;;9.80;99.90;;;;;;5073755;28;20479;-58
2022/05/11 02:20:20;;;;;;;27.63;16.08;;;9.80;99.90;;;;;;5076309;28;20123;-57
2022/05/11 02:22:48;;;;;;;25.88;15.73;;;9.80;99.90;;;;;;5077596;28;20028;-57
2022/05/11 02:25:15;;;;;;;23.42;15.35;;;9.70;99.90;;;;;;5077607;28;20033;-57
2022/05/11 02:27:43;;;;;;;55.20;15.85;;;9.70;99.90;;;;;;5077482;28;20025;-57
2022/05/11 02:30:12;;;;;;;24.65;14.85;;;9.70;99.90;;;;;;5077497;28;20103;-57
2022/05/11 02:32:38;;;;;;;22.60;13.43;;;9.60;99.90;;;;;;5077484;28;20020;-57
2022/05/11 02:35:16;;;;;;;27.15;16.98;;;9.60;99.90;;;;;;5077599;28;20032;-57
2022/05/11 02:37:57;;;;;;;26.55;16.00;;;9.50;99.90;;;;;;5077325;28;20021;-57
2022/05/11 02:40:25;;;;;;;;;;;9.30;99.90;;;;;;5077917;28;20033;-57
2022/05/11 02:42:52;;;;;;;23.65;13.68;;;9.30;99.90;;;;;;5077466;28;19908;-57
2022/05/11 02:45:19;;;;;;;25.80;14.85;;;9.40;99.90;;;;;;5076882;28;20036;-57
2022/05/11 02:47:46;;;;;;;23.08;14.55;;;9.40;99.90;;;;;;5077279;28;20490;-57
2022/05/11 02:50:15;;;;;;;27.90;16.33;;;9.40;99.90;;;;;;5076926;28;20032;-57
2022/05/11 02:52:41;;;;;;;25.52;15.13;;;9.40;99.90;;;;;;5077055;28;20481;-57
2022/05/11 02:55:08;;;;;;;27.20;15.23;;;9.40;99.90;;;;;;5077243;28;20032;-57
2022/05/11 02:57:34;;;;;;;20.13;14.27;;;9.40;99.90;;;;;;5076943;28;20025;-57
2022/05/11 03:00:00;;;;;;;21.10;15.02;;;9.40;99.90;;;;;;5077049;28;20116;-57
2022/05/11 03:02:27;;;;;;;20.17;13.85;;;9.30;99.90;;;;;;5076981;28;20036;-57
2022/05/11 03:04:53;;;;;;;23.98;14.38;;;9.30;99.90;;;;;;5076830;28;20033;-57
2022/05/11 03:07:19;;;;;;;19.25;13.70;;;9.30;99.90;;;;;;5076927;28;20101;-57
2022/05/11 03:09:45;;;;;;;22.33;13.80;;;9.20;99.90;;;;;;5076773;28;20036;-57
2022/05/11 03:12:12;;;;;;;27.92;16.75;;;9.20;99.90;;;;;;5076882;28;20350;-57
2022/05/11 03:14:41;;;;;;;28.63;16.58;;;9.20;99.90;;;;;;5076722;28;20500;-57
2022/05/11 03:17:08;;;;;;;23.38;15.52;;;9.20;99.90;;;;;;5076842;28;20077;-57
2022/05/11 03:19:34;;;;;;;31.60;16.58;;;9.20;99.90;;;;;;5076360;28;20044;-57
2022/05/11 03:22:00;;;;;;;28.90;17.02;;;9.20;99.90;;;;;;5076539;28;20499;-57
2022/05/11 03:24:26;;;;;;;28.10;16.80;;;9.20;99.90;;;;;;5076688;28;20035;-57
2022/05/11 03:26:52;;;;;;;24.63;15.75;;;9.10;99.90;;;;;;5076234;28;20385;-57
2022/05/11 03:29:19;;;;;;;22.60;15.30;;;9.10;99.90;;;;;;5076546;28;20484;-57
2022/05/11 03:34:36;;;;;;;25.58;17.17;;;9.10;99.90;;;;;;5075523;28;20106;-57
2022/05/11 03:34:38;;;;;;;22.98;15.95;;;9.10;99.90;;;;;;5076447;28;20028;-57
2022/05/11 03:37:09;;;;;;;31.20;17.50;;;9.10;99.90;;;;;;5076681;28;20115;-57
2022/05/11 03:39:35;;;;;;;27.35;18.00;;;9.00;99.90;;;;;;5076170;28;20029;-57
2022/05/11 03:42:03;;;;;;;29.75;17.05;;;9.10;99.90;;;;;;5076234;28;20482;-57
2022/05/11 03:44:29;;;;;;;28.13;17.48;;;9.00;99.90;;;;;;5075940;28;20094;-57
2022/05/11 03:46:55;;;;;;;26.98;15.10;;;9.00;99.90;;;;;;5076129;28;20040;-57
2022/05/11 03:49:22;;;;;;;32.42;15.80;;;9.00;99.90;;;;;;5076113;28;20096;-57
2022/05/11 03:51:52;;;;;;;29.58;16.77;;;9.10;99.90;;;;;;5075917;28;20024;-57
2022/05/11 03:54:18;;;;;;;23.42;14.32;;;9.10;99.90;;;;;;5076087;28;20549;-57
2022/05/11 03:56:44;;;;;;;22.33;12.93;;;9.00;99.90;;;;;;5075777;28;20103;-57
2022/05/11 03:59:10;;;;;;;21.33;13.10;;;9.00;99.90;;;;;;5075952;28;20497;-57
2022/05/11 04:01:36;;;;;;;24.90;13.15;;;9.00;99.90;;;;;;5075800;28;20028;-57
2022/05/11 04:04:02;;;;;;;21.80;14.13;;;9.00;99.90;;;;;;5075662;28;20427;-57
2022/05/11 04:06:29;;;;;;;23.23;14.18;;;9.10;99.90;;;;;;5075669;28;20117;-57
2022/05/11 04:08:55;;;;;;;27.60;15.88;;;9.10;99.90;;;;;;5075570;28;20039;-57
2022/05/11 04:11:22;;;;;;;34.00;17.73;;;9.10;99.90;;;;;;5075555;28;20408;-57
2022/05/11 04:13:52;;;;;;;31.55;17.80;;;9.20;99.90;;;;;;5075936;28;20016;-57
2022/05/11 04:16:19;;;;;;;27.52;16.75;;;9.30;99.90;;;;;;5075366;28;20025;-57
2022/05/11 04:18:45;;;;;;;31.73;16.77;;;9.30;99.90;;;;;;5075346;28;20101;-57
2022/05/11 04:21:12;;;;;;;26.83;16.88;;;9.40;99.90;;;;;;5075155;28;20496;-57
2022/05/11 04:23:41;;;;;;;30.20;18.27;;;9.40;99.90;;;;;;5075614;28;20074;-57
2022/05/11 04:26:12;;;;;;;25.55;17.02;;;9.40;99.90;;;;;;5075160;28;20024;-57
2022/05/11 04:28:39;;;;;;;;;;;9.50;99.90;;;;;;5075688;28;20095;-57
2022/05/11 04:31:08;;;;;;;28.02;16.27;;;9.60;99.90;;;;;;5075165;28;19920;-57
2022/05/11 04:33:35;;;;;;;26.17;16.63;;;9.70;99.90;;;;;;5075119;28;20552;-57
2022/05/11 04:36:02;;;;;;;34.60;17.15;;;9.70;99.90;;;;;;5075248;28;20024;-57
2022/05/11 04:38:28;;;;;;;34.35;20.52;;;9.80;99.90;;;;;;5075021;28;20020;-57
2022/05/11 04:40:54;;;;;;;34.75;19.92;;;10.00;99.90;;;;;;5075117;28;20028;-57
2022/05/11 04:43:20;;;;;;;28.98;19.30;;;10.10;99.90;;;;;;5075032;28;20064;-57
2022/05/11 04:45:47;;;;;;;30.65;18.98;;;10.20;99.90;;;;;;5074615;28;20043;-57
2022/05/11 04:48:15;;;;;;;33.72;19.58;;;10.30;99.90;;;;;;5075065;28;20044;-57
2022/05/11 04:50:43;;;;;;;28.92;18.50;;;10.40;99.90;;;;;;5074760;28;20029;-57
2022/05/11 04:53:11;;;;;;;38.45;21.55;;;10.60;99.90;;;;;;5074659;28;20027;-57
2022/05/11 04:55:37;;;;;;;49.85;27.20;;;10.60;99.90;;;;;;5074964;28;20034;-57
2022/05/11 04:58:04;;;;;;;47.78;29.30;;;10.70;99.90;;;;;;5074644;28;20367;-57
2022/05/11 05:00:31;;;;;;;45.42;25.50;;;10.80;99.90;;;;;;5074647;28;20393;-57
2022/05/11 05:02:56;;;;;;;47.70;25.33;;;10.90;99.90;;;;;;5074636;28;20498;-57
2022/05/11 05:05:23;;;;;;;40.25;22.55;;;11.10;99.90;;;;;;5074798;28;20106;-57
2022/05/11 05:07:49;;;;;;;28.88;20.08;;;11.20;99.90;;;;;;5074313;28;20486;-57
2022/05/11 05:10:16;;;;;;;26.90;18.75;;;11.40;99.90;;;;;;5074549;28;20130;-57
2022/05/11 05:12:48;;;;;;;33.88;18.63;;;11.40;99.90;;;;;;5074470;28;20470;-57
2022/05/11 05:15:16;;;;;;;32.20;18.63;;;11.50;99.90;;;;;;5060097;28;20464;-57
2022/05/11 05:17:42;;;;;;;27.77;16.60;;;11.60;99.90;;;;;;5060321;28;20029;-57
2022/05/11 05:20:11;;;;;;;35.60;19.13;;;11.70;99.90;;;;;;5064898;28;20049;-57
2022/05/11 05:22:38;;;;;;;34.40;17.92;;;11.80;99.90;;;;;;5071179;28;20079;-57
2022/05/11 05:25:05;;;;;;;35.90;18.00;;;11.90;99.90;;;;;;5073562;28;20378;-57
2022/05/11 05:27:31;;;;;;;30.67;19.45;;;12.00;99.90;;;;;;5071709;28;20451;-57
2022/05/11 05:32:44;;;;;;;28.90;18.48;;;12.20;99.90;;;;;;5051355;28;20111;-57
2022/05/11 05:35:16;;;;;;;36.53;18.75;;;12.40;99.90;;;;;;5067721;28;20496;-57
2022/05/11 05:37:44;;;;;;;41.22;22.20;;;12.60;99.90;;;;;;5057524;28;20446;-57
2022/05/11 05:40:10;;;;;;;30.38;18.63;;;12.70;99.90;;;;;;5057769;28;20036;-57
2022/05/11 05:42:37;;;;;;;27.35;19.13;;;12.90;99.90;;;;;;5057097;28;20029;-57
2022/05/11 05:45:05;;;;;;;32.17;19.13;;;13.10;99.90;;;;;;5058571;28;20475;-57
2022/05/11 05:47:32;;;;;;;27.75;18.52;;;13.20;99.90;;;;;;5067249;28;20484;-57
2022/05/11 05:50:01;;;;;;;30.83;18.40;;;13.40;99.90;;;;;;5075944;28;20025;-57
2022/05/11 05:52:27;;;;;;;31.63;19.02;;;13.50;99.90;;;;;;5061478;28;20587;-57
2022/05/11 05:54:56;;;;;;;27.88;17.80;;;13.50;99.90;;;;;;5068759;28;20032;-57
2022/05/11 05:57:22;;;;;;;24.83;17.33;;;13.60;99.90;;;;;;5068779;28;20057;-57
2022/05/11 05:59:48;;;;;;;32.72;17.65;;;13.70;99.90;;;;;;5086561;28;20071;-57
2022/05/11 06:02:16;;;;;;;21.95;16.00;;;13.90;99.90;;;;;;5066004;28;20481;-57
2022/05/11 06:04:50;;;;;;;30.13;18.25;;;13.90;99.90;;;;;;5074283;28;20083;-57
2022/05/11 06:07:18;;;;;;;28.15;18.00;;;14.10;99.90;;;;;;5064766;28;20043;-58
2022/05/11 06:09:45;;;;;;;34.85;18.33;;;14.20;99.90;;;;;;5088990;28;20035;-57
2022/05/11 06:12:12;;;;;;;31.23;15.48;;;14.20;99.90;;;;;;5091223;28;20497;-57
2022/05/11 06:14:39;;;;;;;35.17;16.60;;;14.40;99.90;;;;;;5066175;28;20025;-57
2022/05/11 06:17:22;;;;;;;27.27;16.80;;;14.60;99.90;;;;;;5057523;28;20087;-57
2022/05/11 06:19:49;;;;;;;24.77;15.43;;;14.90;99.90;;;;;;5065868;28;20036;-57
2022/05/11 06:22:15;;;;;;;24.08;14.25;;;15.10;99.90;;;;;;5077652;28;20024;-57
2022/05/11 06:24:41;;;;;;;24.65;13.55;;;15.20;99.90;;;;;;5097228;28;20024;-57
2022/05/11 06:27:23;;;;;;;37.33;18.45;;;15.40;99.90;;;;;;5087639;28;20033;-57
2022/05/11 06:29:52;;;;;;;28.55;14.55;;;15.60;99.90;;;;;;5078143;28;20107;-57
2022/05/11 06:32:24;;;;;;;28.48;15.73;;;15.80;99.90;;;;;;5077615;28;20024;-56
2022/05/11 06:34:51;;;;;;;21.10;12.52;;;16.10;99.90;;;;;;5077762;28;20040;-57
2022/05/11 06:37:18;;;;;;;23.08;12.95;;;16.40;99.90;;;;;;5077478;28;20035;-57
2022/05/11 06:39:44;;;;;;;23.15;12.80;;;16.50;99.90;;;;;;5068124;28;20020;-57
2022/05/11 06:42:13;;;;;;;21.45;13.00;;;16.70;99.90;;;;;;5075886;28;20025;-57
2022/05/11 06:44:40;;;;;;;30.88;13.68;;;16.90;99.90;;;;;;5072823;28;20031;-57
2022/05/11 06:47:06;;;;;;;29.17;13.48;;;17.10;99.90;;;;;;5070922;28;20021;-57
2022/05/11 06:49:33;;;;;;;28.55;15.82;;;17.30;99.90;;;;;;5068012;28;20506;-56
2022/05/11 06:51:59;;;;;;;24.63;15.18;;;17.70;99.90;;;;;;5071723;28;20107;-57
2022/05/11 06:59:57;;;;;;;25.95;14.27;;;18.20;99.90;;;;;;5069582;28;20024;-56
2022/05/11 07:02:24;;;;;;;18.50;12.05;;;18.30;99.90;;;;;;5074409;28;20028;-57
2022/05/11 07:04:50;;;;;;;24.75;12.80;;;18.60;99.90;;;;;;5071898;28;20385;-57
2022/05/11 07:07:18;;;;;;;23.40;11.40;;;18.90;99.90;;;;;;5060895;28;20383;-57
2022/05/11 07:09:44;;;;;;;29.52;13.43;;;19.10;99.90;;;;;;5071688;28;20062;-57
2022/05/11 07:12:21;;;;;;;17.83;11.80;;;19.40;99.90;;;;;;5094458;28;20099;-57
2022/05/11 07:14:53;;;;;;;17.50;11.18;;;19.50;99.90;;;;;;5077318;28;20394;-57
2022/05/11 07:17:38;;;;;;;22.17;10.82;;;19.60;99.90;;;;;;5074758;28;20158;-57
2022/05/11 07:20:18;;;;;;;20.33;10.27;;;19.90;99.90;;;;;;5067983;28;20056;-57
2022/05/11 07:22:45;;;;;;;30.58;11.98;;;20.10;99.90;;;;;;5040333;28;20051;-57
2022/05/11 07:25:16;;;;;;;29.38;11.68;;;20.60;99.90;;;;;;5080188;28;20039;-57
2022/05/11 07:27:44;;;;;;;21.83;11.20;;;21.00;99.90;;;;;;5067551;28;20414;-57
2022/05/11 07:30:15;;;;;;;19.98;11.00;;;21.20;96.00;;;;;;5068745;28;20024;-57
2022/05/11 07:32:45;;;;;;;21.65;11.43;;;21.50;97.40;;;;;;5071317;28;20032;-57
2022/05/11 07:35:11;;;;;;;35.72;20.60;;;21.70;95.30;;;;;;5074786;28;20099;-57
2022/05/11 07:37:37;;;;;;;19.77;10.85;;;21.80;92.80;;;;;;5072155;28;20424;-57
2022/05/11 07:40:05;;;;;;;22.08;11.23;;;22.00;91.00;;;;;;5067580;28;20515;-57
2022/05/11 07:42:32;;;;;;;17.42;9.77;;;22.10;90.80;;;;;;5062440;28;20032;-57
2022/05/11 07:44:58;;;;;;;18.88;9.10;;;22.30;85.90;;;;;;5063087;28;20023;-57
2022/05/11 07:47:24;;;;;;;20.08;8.48;;;22.50;87.30;;;;;;5074596;28;20031;-57
2022/05/11 07:49:50;;;;;;;18.30;8.93;;;22.70;74.70;;;;;;5072696;28;20036;-57
2022/05/11 07:52:16;;;;;;;21.70;8.95;;;22.90;83.30;;;;;;5079401;28;20028;-57
2022/05/11 07:54:42;;;;;;;19.88;9.15;;;23.00;86.40;;;;;;5087215;28;20028;-56
2022/05/11 07:59:59;;;;;;;25.38;10.13;;;23.60;85.50;;;;;;5075846;28;20031;-57
2022/05/11 08:02:43;;;;;;;17.65;8.73;;;23.90;84.80;;;;;;5071677;28;20055;-57
2022/05/11 08:05:12;;;;;;;28.83;14.70;;;24.30;82.60;;;;;;5076715;28;20066;-56
2022/05/11 08:07:49;;;;;;;17.42;8.48;;;24.40;76.70;;;;;;5068633;28;20029;-57
2022/05/11 08:10:19;;;;;;;20.13;10.10;;;24.40;66.70;;;;;;5065848;28;20054;-57
2022/05/11 08:12:52;;;;;;;17.48;7.70;;;24.40;67.20;;;;;;5063350;28;20501;-57
2022/05/11 08:15:21;;;;;;;16.70;7.93;;;24.80;70.60;;;;;;5065680;28;20040;-57
2022/05/11 08:17:49;;;;;;;19.83;7.78;;;24.90;72.80;;;;;;5072441;28;20023;-57
2022/05/11 08:20:19;;;;;;;16.02;7.25;;;24.70;65.40;;;;;;5072201;28;20060;-57
2022/05/11 08:22:46;;;;;;;13.38;6.32;;;25.10;78.40;;;;;;5081988;28;20053;-57
2022/05/11 08:25:20;;;;;;;22.35;7.50;;;25.30;62.50;;;;;;5067360;28;20636;-57
2022/05/11 08:28:03;;;;;;;15.85;7.50;;;25.60;75.00;;;;;;5081413;28;20474;-57
2022/05/11 08:33:22;;;;;;;20.35;6.70;;;26.30;61.10;;;;;;5063496;28;20033;-57
2022/05/11 08:35:53;;;;;;;13.35;6.47;;;26.20;54.50;;;;;;5070579;28;20037;-57
2022/05/11 08:38:25;;;;;;;13.63;5.72;;;25.80;56.40;;;;;;5072301;28;20027;-57
2022/05/11 08:41:01;;;;;;;10.75;6.00;;;26.00;56.70;;;;;;5047895;28;20029;-57
2022/05/11 08:43:31;;;;;;;10.18;6.25;;;26.30;58.40;;;;;;5060716;28;20058;-57
2022/05/11 08:46:38;;;;;;;12.13;6.68;;;26.40;52.90;;;;;;5059416;28;20482;-57
2022/05/11 08:49:38;;;;;;;9.25;6.13;;;25.40;55.20;;;;;;5073583;28;20423;-57
2022/05/11 08:52:10;;;;;;;11.52;5.35;;;26.00;54.40;;;;;;5073295;28;20029;-58
2022/05/11 08:54:39;;;;;;;18.58;7.72;;;26.40;52.20;;;;;;5074229;28;20033;-57
2022/05/11 08:57:23;;;;;;;9.23;5.28;;;26.50;51.90;;;;;;5074218;28;20082;-57
2022/05/11 08:59:53;;;;;;;9.13;5.30;;;26.60;52.70;;;;;;5073511;28;20078;-57
2022/05/11 09:02:25;;;;;;;12.70;5.75;;;26.40;49.90;;;;;;5074735;28;20025;-57
2022/05/11 09:04:55;;;;;;;8.63;4.97;;;26.70;51.50;;;;;;5073573;28;20035;-57
2022/05/11 09:07:21;;;;;;;12.20;4.30;;;26.90;52.40;;;;;;5073365;28;20024;-57
2022/05/11 09:09:50;;;;;;;20.98;5.40;;;27.40;49.50;;;;;;5074758;28;20253;-57
2022/05/11 09:12:16;;;;;;;8.05;4.05;;;27.90;48.60;;;;;;5075000;28;20038;-57
2022/05/11 09:14:56;;;;;;;12.60;4.78;;;28.20;47.30;;;;;;5074479;28;20107;-57
2022/05/11 09:17:27;;;;;;;8.83;4.23;;;28.30;48.40;;;;;;5075284;28;20025;-58
2022/05/11 09:20:05;;;;;;;6.40;3.97;;;28.60;46.40;;;;;;5074521;28;20052;-57
2022/05/11 09:22:34;;;;;;;9.50;3.90;;;28.70;46.60;;;;;;5073711;28;20445;-58
2022/05/11 09:25:13;;;;;;;10.48;4.40;;;28.50;47.20;;;;;;5074013;28;20038;-58
2022/05/11 09:27:39;;;;;;;8.47;4.40;;;28.50;43.10;;;;;;5073858;28;20081;-58
2022/05/11 09:30:25;;;;;;;10.95;3.67;;;28.60;46.00;;;;;;5073079;28;20308;-57
2022/05/11 09:32:53;;;;;;;5.28;3.40;;;28.10;41.80;;;;;;5053490;28;20078;-58
2022/05/11 09:35:36;;;;;;;5.72;3.35;;;28.00;42.20;;;;;;5074713;28;20063;-58
2022/05/11 09:38:07;;;;;;;9.57;4.00;;;28.40;44.00;;;;;;5073181;28;20063;-57
2022/05/11 09:41:05;;;;;;;12.00;3.88;;;28.30;44.10;;;;;;5074070;28;20029;-57
2022/05/11 09:43:44;;;;;;;6.45;3.65;;;28.60;42.90;;;;;;5071836;28;20032;-57
2022/05/11 09:46:31;;;;;;;7.18;3.03;;;28.70;43.00;;;;;;5074022;28;20424;-58
2022/05/11 09:49:07;;;;;;;8.75;4.03;;;29.40;42.20;;;;;;5074667;28;20082;-58
2022/05/11 09:51:41;;;;;;;18.95;3.83;;;29.30;40.50;;;;;;5074313;28;20056;-57
2022/05/11 09:54:25;;;;;;;10.20;3.80;;;28.90;41.90;;;;;;5074671;28;20496;-57
2022/05/11 09:57:09;;;;;;;10.73;3.00;;;28.00;40.80;;;;;;5074762;28;20027;-58
2022/05/11 09:59:46;;;;;;;22.05;6.45;;;28.60;40.00;;;;;;5074479;28;20016;-57
2022/05/11 10:02:32;;;;;;;13.25;3.45;;;28.30;41.60;;;;;;5074388;28;20024;-58
2022/05/11 10:05:15;;;;;;;9.93;3.42;;;27.70;40.20;;;;;;5074221;28;20028;-58
2022/05/11 10:07:53;;;;;;;5.72;2.78;;;28.20;41.10;;;;;;5074553;28;20050;-57
2022/05/11 10:10:43;;;;;;;17.40;4.22;;;28.70;38.90;;;;;;5073114;28;20039;-57
2022/05/11 10:13:32;;;;;;;6.22;3.03;;;28.70;39.00;;;;;;5068492;28;20024;-57
2022/05/11 10:22:00;;;;;;;8.52;2.92;;;29.60;37.80;;;;;;5068166;28;19916;-57
2022/05/11 10:24:45;;;;;;;4.68;2.63;;;29.00;35.60;;;;;;5073421;28;20493;-57
2022/05/11 10:27:37;;;;;;;6.40;2.75;;;29.10;35.10;;;;;;5069041;28;20108;-57
2022/05/11 10:30:11;;;;;;;6.88;2.50;;;29.10;32.20;;;;;;5062860;28;20052;-58
2022/05/11 10:33:01;;;;;;;4.30;2.25;;;28.90;33.30;;;;;;5070584;28;20025;-58
2022/05/11 10:35:50;;;;;;;;;;;29.10;32.60;;;;;;5066195;28;20458;-58
2022/05/11 10:38:35;;;;;;;5.25;2.88;;;29.50;34.50;;;;;;5029582;28;19959;-58
2022/05/11 10:41:32;;;;;;;7.63;3.17;;;29.80;33.60;;;;;;5060945;28;20036;-58
2022/05/11 10:44:23;;;;;;;7.88;2.72;;;29.90;32.60;;;;;;5069793;28;20121;-58
2022/05/11 10:47:01;;;;;;;11.57;3.17;;;29.30;32.30;;;;;;5076845;28;20025;-58
2022/05/11 10:49:50;;;;;;;4.93;2.45;;;29.90;34.20;;;;;;5076983;28;20044;-58
2022/05/11 10:52:35;;;;;;;32.28;6.68;;;30.40;34.80;;;;;;5075823;28;20640;-58
2022/05/11 10:55:16;;;;;;;6.75;2.38;;;29.70;34.10;;;;;;5077387;28;20386;-58
2022/05/11 10:58:10;;;;;;;7.70;2.90;;;29.80;34.60;;;;;;5058319;28;20115;-58
2022/05/11 11:01:05;;;;;;;6.47;2.85;;;29.70;32.80;;;;;;5059114;28;20471;-58
2022/05/11 11:03:55;;;;;;;11.00;4.00;;;30.40;32.10;;;;;;5056920;28;20048;-58
2022/05/11 11:09:52;;;;;;;12.23;3.42;;;29.90;34.80;;;;;;5057249;28;20254;-58
2022/05/11 11:12:38;;;;;;;16.80;4.78;;;30.40;33.10;;;;;;5039307;28;20714;-58
2022/05/11 11:15:11;;;;;;;10.40;3.80;;;30.30;33.40;;;;;;5067085;28;20414;-58
2022/05/11 11:17:38;;;;;;;19.70;5.70;;;29.60;33.00;;;;;;5077162;28;20482;-58
2022/05/11 11:20:06;;;;;;;12.73;4.30;;;29.30;37.20;;;;;;5076710;28;20072;-58
2022/05/11 11:23:02;;;;;;;6.93;3.40;;;29.00;35.70;;;;;;5077017;28;20036;-58
2022/05/11 11:25:41;;;;;;;11.07;2.88;;;29.50;36.20;;;;;;5076955;28;20036;-58
2022/05/11 11:28:11;;;;;;;13.15;3.40;;;29.80;33.90;;;;;;5076020;28;20033;-58
2022/05/11 11:30:41;;;;;;;10.50;2.78;;;30.20;33.80;;;;;;5075712;28;20020;-58
2022/05/11 11:33:13;;;;;;;6.32;2.30;;;30.60;37.70;;;;;;5073120;28;20025;-57
2022/05/11 11:36:00;;;;;;;9.15;2.70;;;30.70;29.40;;;;;;5076284;28;20025;-57
2022/05/11 11:38:38;;;;;;;11.05;4.15;;;30.30;29.80;;;;;;5076706;28;20090;-57
2022/05/11 11:41:18;;;;;;;15.23;5.28;;;30.10;30.00;;;;;;5076587;28;20134;-56
2022/05/11 11:43:57;;;;;;;3.42;2.10;;;30.20;32.20;;;;;;5076293;28;20033;-56
2022/05/11 11:46:34;;;;;;;3.17;2.17;;;30.40;30.00;;;;;;5075981;28;20028;-56
2022/05/11 11:49:02;;;;;;;8.77;2.90;;;30.60;33.40;;;;;;5076648;28;20037;-56
2022/05/11 11:51:50;;;;;;;10.13;2.95;;;30.80;32.30;;;;;;5075443;28;20032;-56
2022/05/11 11:54:38;;;;;;;5.60;3.42;;;30.90;30.50;;;;;;5075323;28;20032;-56
2022/05/11 11:57:16;;;;;;;8.93;3.22;;;30.60;28.70;;;;;;5076308;28;20035;-56
2022/05/11 11:59:49;;;;;;;12.02;3.00;;;30.50;29.40;;;;;;5075650;28;20021;-56
2022/05/11 12:02:29;;;;;;;10.25;3.55;;;30.90;29.50;;;;;;5075801;28;20035;-56
2022/05/11 12:04:58;;;;;;;11.63;3.22;;;31.00;30.50;;;;;;5076043;28;20028;-56
2022/05/11 12:16:05;;;;;;;15.50;5.05;;;31.00;30.20;;;;;;5067734;28;20485;-56
2022/05/11 12:18:37;;;;;;;8.52;3.33;;;30.30;30.60;;;;;;5067528;28;20109;-55
2022/05/11 12:21:11;;;;;;;14.30;4.10;;;30.20;32.90;;;;;;5074109;28;20397;-56
2022/05/11 12:23:46;;;;;;;15.50;3.97;;;30.40;32.80;;;;;;5075437;28;20066;-56
2022/05/11 12:26:21;;;;;;;26.20;8.43;;;30.70;32.40;;;;;;5072326;28;20035;-56
2022/05/11 12:28:47;;;;;;;16.45;5.05;;;30.70;30.00;;;;;;5075607;28;20550;-56
2022/05/11 12:31:32;;;;;;;9.45;3.72;;;30.80;30.40;;;;;;5075793;28;20021;-56
2022/05/11 12:33:58;;;;;;;20.42;5.82;;;30.70;32.80;;;;;;5075593;28;20099;-56
2022/05/11 12:36:34;;;;;;;12.90;4.68;;;29.70;29.70;;;;;;5075941;28;20063;-56
2022/05/11 12:39:01;;;;;;;17.30;5.55;;;29.30;31.70;;;;;;5067234;28;20067;-56
2022/05/11 12:41:29;;;;;;;14.35;5.28;;;29.20;31.70;;;;;;5055575;28;20037;-56
2022/05/11 12:43:59;;;;;;;18.60;6.10;;;29.50;31.80;;;;;;5070587;28;20031;-56
2022/05/11 12:46:25;;;;;;;;;;;29.50;31.70;;;;;;5071737;28;20024;-55
2022/05/11 12:48:53;;;;;;;18.70;4.60;;;29.20;33.80;;;;;;5074300;28;19916;-56
2022/05/11 12:51:29;;;;;;;14.68;5.45;;;29.50;32.80;;;;;;5080039;28;20029;-55
2022/05/11 12:53:58;;;;;;;19.63;5.53;;;29.60;33.40;;;;;;5071538;28;20103;-56
2022/05/11 12:56:31;;;;;;;10.07;4.25;;;30.20;33.20;;;;;;5072986;28;20032;-56
2022/05/11 12:59:00;;;;;;;13.73;4.95;;;30.10;33.10;;;;;;5075252;28;20021;-56
2022/05/11 13:01:31;;;;;;;11.20;4.20;;;30.10;31.90;;;;;;5074364;28;20040;-56
2022/05/11 13:04:01;;;;;;;;;;;29.90;30.00;;;;;;5070397;28;20024;-56
2022/05/11 13:06:35;;;;;;;14.45;4.15;;;30.10;30.30;;;;;;5075128;28;19912;-56
2022/05/11 13:09:24;;;;;;;16.50;4.75;;;29.70;30.90;;;;;;5066665;28;20410;-56
2022/05/11 13:11:52;;;;;;;13.27;4.63;;;29.60;30.20;;;;;;5063465;28;20118;-56
2022/05/11 13:14:22;;;;;;;13.88;6.35;;;29.80;31.40;;;;;;5069184;28;20016;-56
2022/05/11 13:16:55;;;;;;;13.65;5.28;;;29.60;30.60;;;;;;5084730;28;20021;-56
2022/05/11 13:19:34;;;;;;;18.38;8.07;;;29.00;29.90;;;;;;5084315;28;20127;-56
2022/05/11 13:22:09;;;;;;;15.93;7.32;;;28.80;31.50;;;;;;5069422;28;20100;-56
2022/05/11 13:24:45;;;;;;;12.10;5.40;;;29.20;33.80;;;;;;5068282;28;20032;-56
2022/05/11 13:27:45;;;;;;;6.45;3.83;;;29.10;33.40;;;;;;5074926;28;20040;-56
2022/05/11 13:30:22;;;;;;;9.73;4.65;;;29.30;33.60;;;;;;5075386;28;20040;-56
2022/05/11 13:32:57;;;;;;;13.68;4.60;;;29.40;32.80;;;;;;5074691;28;20033;-56